sensor_id;sensor_type;location;lat;lon;timestamp;P1;durP1;ratioP1;P2;durP2;ratioP2
67378;SDS011;54262;44.642;-0.974;2023-03-20T00:03:42;3.30;;;1.70;;
67378;SDS011;54262;44.642;-0.974;2023-03-20T00:06:26;2.88;;;1.33;;
67378;SDS011;54262;44.642;-0.974;2023-03-20T00:08:53;4.75;;;1.48;;
67378;SDS011;54262;44.642;-0.974;2023-03-20T00:11:26;2.50;;;1.20;;
67378;SDS011;54262;44.642;-0.974;2023-03-20T00:14:00;8.15;;;2.00;;
67378;SDS011;54262;44.642;-0.974;2023-03-20T00:16:34;4.05;;;2.10;;
67378;SDS011;54262;44.642;-0.974;2023-03-20T00:19:01;5.40;;;2.20;;
67378;SDS011;54262;44.642;-0.974;2023-03-20T00:21:28;4.97;;;3.08;;
67378;SDS011;54262;44.642;-0.974;2023-03-20T00:23:54;7.38;;;3.50;;
67378;SDS011;54262;44.642;-0.974;2023-03-20T00:26:22;4.43;;;2.90;;
67378;SDS011;54262;44.642;-0.974;2023-03-20T00:28:49;4.35;;;2.47;;
67378;SDS011;54262;44.642;-0.974;2023-03-20T00:33:55;5.43;;;2.42;;
67378;SDS011;54262;44.642;-0.974;2023-03-20T00:36:22;3.53;;;2.00;;
67378;SDS011;54262;44.642;-0.974;2023-03-20T00:38:51;4.60;;;1.95;;
67378;SDS011;54262;44.642;-0.974;2023-03-20T00:43:53;3.53;;;2.03;;
67378;SDS011;54262;44.642;-0.974;2023-03-20T00:46:20;7.18;;;1.70;;
67378;SDS011;54262;44.642;-0.974;2023-03-20T00:48:46;2.30;;;1.60;;
67378;SDS011;54262;44.642;-0.974;2023-03-20T00:51:12;2.80;;;1.30;;
67378;SDS011;54262;44.642;-0.974;2023-03-20T00:53:38;3.30;;;1.60;;
67378;SDS011;54262;44.642;-0.974;2023-03-20T00:56:08;2.53;;;0.90;;
67378;SDS011;54262;44.642;-0.974;2023-03-20T00:58:38;4.37;;;1.07;;
67378;SDS011;54262;44.642;-0.974;2023-03-20T01:01:04;1.65;;;1.02;;
67378;SDS011;54262;44.642;-0.974;2023-03-20T01:03:30;3.58;;;1.58;;
67378;SDS011;54262;44.642;-0.974;2023-03-20T01:05:56;6.78;;;2.13;;
67378;SDS011;54262;44.642;-0.974;2023-03-20T01:08:23;14.57;;;2.17;;
67378;SDS011;54262;44.642;-0.974;2023-03-20T01:10:52;5.05;;;1.50;;
67378;SDS011;54262;44.642;-0.974;2023-03-20T01:13:28;3.53;;;1.33;;
67378;SDS011;54262;44.642;-0.974;2023-03-20T01:15:55;6.20;;;1.35;;
67378;SDS011;54262;44.642;-0.974;2023-03-20T01:18:22;3.53;;;1.23;;
67378;SDS011;54262;44.642;-0.974;2023-03-20T01:20:49;5.90;;;2.17;;
67378;SDS011;54262;44.642;-0.974;2023-03-20T01:23:17;8.02;;;1.52;;
67378;SDS011;54262;44.642;-0.974;2023-03-20T01:25:43;5.85;;;1.00;;
67378;SDS011;54262;44.642;-0.974;2023-03-20T01:30:39;4.95;;;1.40;;
67378;SDS011;54262;44.642;-0.974;2023-03-20T01:33:05;3.40;;;1.73;;
67378;SDS011;54262;44.642;-0.974;2023-03-20T01:35:36;2.33;;;1.20;;
67378;SDS011;54262;44.642;-0.974;2023-03-20T01:38:04;6.28;;;1.73;;
67378;SDS011;54262;44.642;-0.974;2023-03-20T01:40:39;3.00;;;1.27;;
67378;SDS011;54262;44.642;-0.974;2023-03-20T01:43:12;5.90;;;1.70;;
67378;SDS011;54262;44.642;-0.974;2023-03-20T01:45:39;4.63;;;1.00;;
67378;SDS011;54262;44.642;-0.974;2023-03-20T01:48:14;5.35;;;1.45;;
67378;SDS011;54262;44.642;-0.974;2023-03-20T01:50:41;4.00;;;1.48;;
67378;SDS011;54262;44.642;-0.974;2023-03-20T01:55:36;5.13;;;1.58;;
67378;SDS011;54262;44.642;-0.974;2023-03-20T01:58:05;5.47;;;1.98;;
67378;SDS011;54262;44.642;-0.974;2023-03-20T02:00:32;9.20;;;1.90;;
67378;SDS011;54262;44.642;-0.974;2023-03-20T02:02:59;5.47;;;1.50;;
67378;SDS011;54262;44.642;-0.974;2023-03-20T02:05:25;11.95;;;1.40;;
67378;SDS011;54262;44.642;-0.974;2023-03-20T02:08:26;3.50;;;1.23;;
67378;SDS011;54262;44.642;-0.974;2023-03-20T02:10:46;8.80;;;1.35;;
67378;SDS011;54262;44.642;-0.974;2023-03-20T02:13:13;6.75;;;1.40;;
67378;SDS011;54262;44.642;-0.974;2023-03-20T02:15:54;8.02;;;1.35;;
67378;SDS011;54262;44.642;-0.974;2023-03-20T02:18:20;6.80;;;1.40;;
67378;SDS011;54262;44.642;-0.974;2023-03-20T02:28:42;2.97;;;0.90;;
67378;SDS011;54262;44.642;-0.974;2023-03-20T02:31:27;3.72;;;1.30;;
67378;SDS011;54262;44.642;-0.974;2023-03-20T02:36:47;2.80;;;1.15;;
67378;SDS011;54262;44.642;-0.974;2023-03-20T02:39:36;2.65;;;1.10;;
67378;SDS011;54262;44.642;-0.974;2023-03-20T02:42:10;4.00;;;1.38;;
67378;SDS011;54262;44.642;-0.974;2023-03-20T02:47:12;4.97;;;1.30;;
67378;SDS011;54262;44.642;-0.974;2023-03-20T02:50:02;2.15;;;1.13;;
67378;SDS011;54262;44.642;-0.974;2023-03-20T02:55:06;7.20;;;1.45;;
67378;SDS011;54262;44.642;-0.974;2023-03-20T02:57:40;6.18;;;1.50;;
67378;SDS011;54262;44.642;-0.974;2023-03-20T03:00:11;6.95;;;2.13;;
67378;SDS011;54262;44.642;-0.974;2023-03-20T03:02:40;8.75;;;2.58;;
67378;SDS011;54262;44.642;-0.974;2023-03-20T03:05:08;4.80;;;3.20;;
67378;SDS011;54262;44.642;-0.974;2023-03-20T03:07:36;5.55;;;1.67;;
67378;SDS011;54262;44.642;-0.974;2023-03-20T03:10:10;4.63;;;2.25;;
67378;SDS011;54262;44.642;-0.974;2023-03-20T03:12:37;9.10;;;3.42;;
67378;SDS011;54262;44.642;-0.974;2023-03-20T03:17:52;5.90;;;2.00;;
67378;SDS011;54262;44.642;-0.974;2023-03-20T03:20:21;2.58;;;2.38;;
67378;SDS011;54262;44.642;-0.974;2023-03-20T03:22:48;4.95;;;2.08;;
67378;SDS011;54262;44.642;-0.974;2023-03-20T03:25:14;6.20;;;1.98;;
67378;SDS011;54262;44.642;-0.974;2023-03-20T03:27:41;5.57;;;1.30;;
67378;SDS011;54262;44.642;-0.974;2023-03-20T03:30:16;13.00;;;1.23;;
67378;SDS011;54262;44.642;-0.974;2023-03-20T03:35:09;2.83;;;1.25;;
67378;SDS011;54262;44.642;-0.974;2023-03-20T03:37:44;6.97;;;1.17;;
67378;SDS011;54262;44.642;-0.974;2023-03-20T03:42:56;5.15;;;1.65;;
67378;SDS011;54262;44.642;-0.974;2023-03-20T03:45:30;2.78;;;1.15;;
67378;SDS011;54262;44.642;-0.974;2023-03-20T03:48:05;3.95;;;1.27;;
67378;SDS011;54262;44.642;-0.974;2023-03-20T03:50:52;2.85;;;1.33;;
67378;SDS011;54262;44.642;-0.974;2023-03-20T03:53:23;3.38;;;0.90;;
67378;SDS011;54262;44.642;-0.974;2023-03-20T03:55:51;3.33;;;1.38;;
67378;SDS011;54262;44.642;-0.974;2023-03-20T03:58:20;2.13;;;1.13;;
67378;SDS011;54262;44.642;-0.974;2023-03-20T04:00:49;3.60;;;1.15;;
67378;SDS011;54262;44.642;-0.974;2023-03-20T04:03:18;3.45;;;1.33;;
67378;SDS011;54262;44.642;-0.974;2023-03-20T04:05:45;4.78;;;1.27;;
67378;SDS011;54262;44.642;-0.974;2023-03-20T04:08:12;2.20;;;1.50;;
67378;SDS011;54262;44.642;-0.974;2023-03-20T04:10:40;3.38;;;1.20;;
67378;SDS011;54262;44.642;-0.974;2023-03-20T04:13:06;2.60;;;1.38;;
67378;SDS011;54262;44.642;-0.974;2023-03-20T04:15:32;1.63;;;1.00;;
67378;SDS011;54262;44.642;-0.974;2023-03-20T04:17:58;9.88;;;1.20;;
67378;SDS011;54262;44.642;-0.974;2023-03-20T04:20:24;6.80;;;1.02;;
67378;SDS011;54262;44.642;-0.974;2023-03-20T04:22:50;6.70;;;1.40;;
67378;SDS011;54262;44.642;-0.974;2023-03-20T04:25:18;3.85;;;1.30;;
67378;SDS011;54262;44.642;-0.974;2023-03-20T04:27:45;2.47;;;1.15;;
67378;SDS011;54262;44.642;-0.974;2023-03-20T04:30:11;4.93;;;1.25;;
67378;SDS011;54262;44.642;-0.974;2023-03-20T04:32:37;4.53;;;1.30;;
67378;SDS011;54262;44.642;-0.974;2023-03-20T04:35:03;5.72;;;1.30;;
67378;SDS011;54262;44.642;-0.974;2023-03-20T04:37:30;1.55;;;0.88;;
67378;SDS011;54262;44.642;-0.974;2023-03-20T04:39:56;3.25;;;1.13;;
67378;SDS011;54262;44.642;-0.974;2023-03-20T04:42:22;10.02;;;0.88;;
67378;SDS011;54262;44.642;-0.974;2023-03-20T04:44:50;4.05;;;1.30;;
67378;SDS011;54262;44.642;-0.974;2023-03-20T04:47:16;6.75;;;1.15;;
67378;SDS011;54262;44.642;-0.974;2023-03-20T04:49:42;2.78;;;1.17;;
67378;SDS011;54262;44.642;-0.974;2023-03-20T04:52:08;7.07;;;1.58;;
67378;SDS011;54262;44.642;-0.974;2023-03-20T04:54:34;3.40;;;1.40;;
67378;SDS011;54262;44.642;-0.974;2023-03-20T04:57:00;7.30;;;1.50;;
67378;SDS011;54262;44.642;-0.974;2023-03-20T04:59:26;7.75;;;2.60;;
67378;SDS011;54262;44.642;-0.974;2023-03-20T05:01:55;5.38;;;2.13;;
67378;SDS011;54262;44.642;-0.974;2023-03-20T05:04:21;3.95;;;3.10;;
67378;SDS011;54262;44.642;-0.974;2023-03-20T05:06:47;7.55;;;1.48;;
67378;SDS011;54262;44.642;-0.974;2023-03-20T05:09:16;6.55;;;2.03;;
67378;SDS011;54262;44.642;-0.974;2023-03-20T05:11:42;3.72;;;1.45;;
67378;SDS011;54262;44.642;-0.974;2023-03-20T05:14:09;4.35;;;1.42;;
67378;SDS011;54262;44.642;-0.974;2023-03-20T05:16:36;14.98;;;7.40;;
67378;SDS011;54262;44.642;-0.974;2023-03-20T05:19:02;4.20;;;2.15;;
67378;SDS011;54262;44.642;-0.974;2023-03-20T05:21:28;13.60;;;9.43;;
67378;SDS011;54262;44.642;-0.974;2023-03-20T05:23:54;16.35;;;10.88;;
67378;SDS011;54262;44.642;-0.974;2023-03-20T05:26:20;18.48;;;6.85;;
67378;SDS011;54262;44.642;-0.974;2023-03-20T05:28:46;19.02;;;9.50;;
67378;SDS011;54262;44.642;-0.974;2023-03-20T05:31:12;10.73;;;6.22;;
67378;SDS011;54262;44.642;-0.974;2023-03-20T05:33:41;9.27;;;6.30;;
67378;SDS011;54262;44.642;-0.974;2023-03-20T05:36:07;12.90;;;9.70;;
67378;SDS011;54262;44.642;-0.974;2023-03-20T05:38:33;17.52;;;9.85;;
67378;SDS011;54262;44.642;-0.974;2023-03-20T05:40:59;8.60;;;2.00;;
67378;SDS011;54262;44.642;-0.974;2023-03-20T05:43:28;7.88;;;1.98;;
67378;SDS011;54262;44.642;-0.974;2023-03-20T05:45:56;5.68;;;2.83;;
67378;SDS011;54262;44.642;-0.974;2023-03-20T05:48:22;15.43;;;1.58;;
67378;SDS011;54262;44.642;-0.974;2023-03-20T05:50:48;9.82;;;1.30;;
67378;SDS011;54262;44.642;-0.974;2023-03-20T05:53:14;2.75;;;1.63;;
67378;SDS011;54262;44.642;-0.974;2023-03-20T05:55:40;12.98;;;2.40;;
67378;SDS011;54262;44.642;-0.974;2023-03-20T05:58:08;3.05;;;2.38;;
67378;SDS011;54262;44.642;-0.974;2023-03-20T06:00:35;12.77;;;5.10;;
67378;SDS011;54262;44.642;-0.974;2023-03-20T06:03:04;18.33;;;5.80;;
67378;SDS011;54262;44.642;-0.974;2023-03-20T06:05:33;6.28;;;3.60;;
67378;SDS011;54262;44.642;-0.974;2023-03-20T06:08:00;9.85;;;3.05;;
67378;SDS011;54262;44.642;-0.974;2023-03-20T06:10:26;6.03;;;1.75;;
67378;SDS011;54262;44.642;-0.974;2023-03-20T06:12:54;9.07;;;1.60;;
67378;SDS011;54262;44.642;-0.974;2023-03-20T06:15:20;8.45;;;1.92;;
67378;SDS011;54262;44.642;-0.974;2023-03-20T06:17:46;9.90;;;2.17;;
67378;SDS011;54262;44.642;-0.974;2023-03-20T06:20:12;8.63;;;2.38;;
67378;SDS011;54262;44.642;-0.974;2023-03-20T06:22:38;10.82;;;4.75;;
67378;SDS011;54262;44.642;-0.974;2023-03-20T06:25:05;6.35;;;4.70;;
67378;SDS011;54262;44.642;-0.974;2023-03-20T06:27:31;10.10;;;4.38;;
67378;SDS011;54262;44.642;-0.974;2023-03-20T06:29:57;5.18;;;3.30;;
67378;SDS011;54262;44.642;-0.974;2023-03-20T06:32:23;13.40;;;5.45;;
67378;SDS011;54262;44.642;-0.974;2023-03-20T06:34:50;17.08;;;6.70;;
67378;SDS011;54262;44.642;-0.974;2023-03-20T06:37:16;13.07;;;5.40;;
67378;SDS011;54262;44.642;-0.974;2023-03-20T06:39:42;27.35;;;11.55;;
67378;SDS011;54262;44.642;-0.974;2023-03-20T06:42:08;6.28;;;2.65;;
67378;SDS011;54262;44.642;-0.974;2023-03-20T06:44:34;6.22;;;2.42;;
67378;SDS011;54262;44.642;-0.974;2023-03-20T06:47:02;5.63;;;2.75;;
67378;SDS011;54262;44.642;-0.974;2023-03-20T06:49:28;10.05;;;3.88;;
67378;SDS011;54262;44.642;-0.974;2023-03-20T06:51:55;10.63;;;4.18;;
67378;SDS011;54262;44.642;-0.974;2023-03-20T06:54:21;24.05;;;7.28;;
67378;SDS011;54262;44.642;-0.974;2023-03-20T06:56:47;14.27;;;4.85;;
67378;SDS011;54262;44.642;-0.974;2023-03-20T06:59:13;6.45;;;2.05;;
67378;SDS011;54262;44.642;-0.974;2023-03-20T07:01:39;8.50;;;2.63;;
67378;SDS011;54262;44.642;-0.974;2023-03-20T07:04:07;4.63;;;1.67;;
67378;SDS011;54262;44.642;-0.974;2023-03-20T07:06:33;4.80;;;2.10;;
67378;SDS011;54262;44.642;-0.974;2023-03-20T07:09:00;3.78;;;2.35;;
67378;SDS011;54262;44.642;-0.974;2023-03-20T07:11:27;16.23;;;4.28;;
67378;SDS011;54262;44.642;-0.974;2023-03-20T07:13:54;14.23;;;3.15;;
67378;SDS011;54262;44.642;-0.974;2023-03-20T07:16:20;10.20;;;2.90;;
67378;SDS011;54262;44.642;-0.974;2023-03-20T07:18:46;8.25;;;5.32;;
67378;SDS011;54262;44.642;-0.974;2023-03-20T07:21:15;11.63;;;4.43;;
67378;SDS011;54262;44.642;-0.974;2023-03-20T07:23:42;9.52;;;2.58;;
67378;SDS011;54262;44.642;-0.974;2023-03-20T07:26:08;5.13;;;1.75;;
67378;SDS011;54262;44.642;-0.974;2023-03-20T07:28:34;6.63;;;1.88;;
67378;SDS011;54262;44.642;-0.974;2023-03-20T07:31:00;12.70;;;4.18;;
67378;SDS011;54262;44.642;-0.974;2023-03-20T07:33:29;4.72;;;2.00;;
67378;SDS011;54262;44.642;-0.974;2023-03-20T07:35:55;15.23;;;3.08;;
67378;SDS011;54262;44.642;-0.974;2023-03-20T07:38:21;6.32;;;2.53;;
67378;SDS011;54262;44.642;-0.974;2023-03-20T07:40:47;6.95;;;1.98;;
67378;SDS011;54262;44.642;-0.974;2023-03-20T07:43:14;8.10;;;2.53;;
67378;SDS011;54262;44.642;-0.974;2023-03-20T07:45:40;4.68;;;2.38;;
67378;SDS011;54262;44.642;-0.974;2023-03-20T07:48:08;7.90;;;1.63;;
67378;SDS011;54262;44.642;-0.974;2023-03-20T07:50:35;8.93;;;1.88;;
67378;SDS011;54262;44.642;-0.974;2023-03-20T07:53:01;7.03;;;1.55;;
67378;SDS011;54262;44.642;-0.974;2023-03-20T07:55:27;12.95;;;1.70;;
67378;SDS011;54262;44.642;-0.974;2023-03-20T07:57:53;8.70;;;1.75;;
67378;SDS011;54262;44.642;-0.974;2023-03-20T08:00:19;5.78;;;1.30;;
67378;SDS011;54262;44.642;-0.974;2023-03-20T08:02:45;2.65;;;1.13;;
67378;SDS011;54262;44.642;-0.974;2023-03-20T08:05:14;3.95;;;1.50;;
67378;SDS011;54262;44.642;-0.974;2023-03-20T08:07:40;5.53;;;1.10;;
67378;SDS011;54262;44.642;-0.974;2023-03-20T08:10:06;1.48;;;0.90;;
67378;SDS011;54262;44.642;-0.974;2023-03-20T08:12:33;1.95;;;1.00;;
67378;SDS011;54262;44.642;-0.974;2023-03-20T08:14:59;13.02;;;2.35;;
67378;SDS011;54262;44.642;-0.974;2023-03-20T08:17:25;2.65;;;1.52;;
67378;SDS011;54262;44.642;-0.974;2023-03-20T08:19:50;6.90;;;1.45;;
67378;SDS011;54262;44.642;-0.974;2023-03-20T08:22:16;8.15;;;1.17;;
67378;SDS011;54262;44.642;-0.974;2023-03-20T08:24:43;8.98;;;1.17;;
67378;SDS011;54262;44.642;-0.974;2023-03-20T08:27:09;9.27;;;2.55;;
67378;SDS011;54262;44.642;-0.974;2023-03-20T08:29:35;7.72;;;2.58;;
67378;SDS011;54262;44.642;-0.974;2023-03-20T08:32:01;6.15;;;1.63;;
67378;SDS011;54262;44.642;-0.974;2023-03-20T08:34:30;10.77;;;0.90;;
67378;SDS011;54262;44.642;-0.974;2023-03-20T08:36:57;7.50;;;1.30;;
67378;SDS011;54262;44.642;-0.974;2023-03-20T08:39:23;5.40;;;0.88;;
67378;SDS011;54262;44.642;-0.974;2023-03-20T08:41:49;6.05;;;1.80;;
67378;SDS011;54262;44.642;-0.974;2023-03-20T08:44:15;4.75;;;1.38;;
67378;SDS011;54262;44.642;-0.974;2023-03-20T08:46:41;7.03;;;1.30;;
67378;SDS011;54262;44.642;-0.974;2023-03-20T08:49:10;3.28;;;0.77;;
67378;SDS011;54262;44.642;-0.974;2023-03-20T08:51:36;2.92;;;1.00;;
67378;SDS011;54262;44.642;-0.974;2023-03-20T08:54:02;6.88;;;0.80;;
67378;SDS011;54262;44.642;-0.974;2023-03-20T08:56:28;2.50;;;0.60;;
67378;SDS011;54262;44.642;-0.974;2023-03-20T08:58:54;1.63;;;0.50;;
67378;SDS011;54262;44.642;-0.974;2023-03-20T09:01:20;1.50;;;0.70;;
67378;SDS011;54262;44.642;-0.974;2023-03-20T09:03:46;3.45;;;0.63;;
67378;SDS011;54262;44.642;-0.974;2023-03-20T09:06:15;3.60;;;0.70;;
67378;SDS011;54262;44.642;-0.974;2023-03-20T09:08:41;2.38;;;0.70;;
67378;SDS011;54262;44.642;-0.974;2023-03-20T09:11:07;8.00;;;0.95;;
67378;SDS011;54262;44.642;-0.974;2023-03-20T09:13:33;4.43;;;1.25;;
67378;SDS011;54262;44.642;-0.974;2023-03-20T09:15:59;0.65;;;0.65;;
67378;SDS011;54262;44.642;-0.974;2023-03-20T09:18:25;2.83;;;0.73;;
67378;SDS011;54262;44.642;-0.974;2023-03-20T09:20:51;1.77;;;0.70;;
67378;SDS011;54262;44.642;-0.974;2023-03-20T09:23:17;5.20;;;1.10;;
67378;SDS011;54262;44.642;-0.974;2023-03-20T09:25:43;2.60;;;0.90;;
67378;SDS011;54262;44.642;-0.974;2023-03-20T09:28:09;3.13;;;0.73;;
67378;SDS011;54262;44.642;-0.974;2023-03-20T09:30:36;1.63;;;0.50;;
67378;SDS011;54262;44.642;-0.974;2023-03-20T09:33:02;4.38;;;0.60;;
67378;SDS011;54262;44.642;-0.974;2023-03-20T09:35:28;1.05;;;0.60;;
67378;SDS011;54262;44.642;-0.974;2023-03-20T09:37:54;3.60;;;1.70;;
67378;SDS011;54262;44.642;-0.974;2023-03-20T09:50:56;2.58;;;1.05;;
67378;SDS011;54262;44.642;-0.974;2023-03-20T09:55:49;1.77;;;0.63;;
67378;SDS011;54262;44.642;-0.974;2023-03-20T09:58:26;5.22;;;0.70;;
67378;SDS011;54262;44.642;-0.974;2023-03-20T10:00:55;2.35;;;0.55;;
67378;SDS011;54262;44.642;-0.974;2023-03-20T10:03:27;3.42;;;0.70;;
67378;SDS011;54262;44.642;-0.974;2023-03-20T10:06:03;1.63;;;1.33;;
67378;SDS011;54262;44.642;-0.974;2023-03-20T10:08:33;1.90;;;0.57;;
67378;SDS011;54262;44.642;-0.974;2023-03-20T10:16:07;5.38;;;1.80;;
67378;SDS011;54262;44.642;-0.974;2023-03-20T10:18:39;1.77;;;0.57;;
67378;SDS011;54262;44.642;-0.974;2023-03-20T10:23:58;2.35;;;0.70;;
67378;SDS011;54262;44.642;-0.974;2023-03-20T10:26:27;3.72;;;0.70;;
67378;SDS011;54262;44.642;-0.974;2023-03-20T10:28:57;4.10;;;0.50;;
67378;SDS011;54262;44.642;-0.974;2023-03-20T10:31:42;0.85;;;0.40;;
67378;SDS011;54262;44.642;-0.974;2023-03-20T10:35:13;3.95;;;0.65;;
67378;SDS011;54262;44.642;-0.974;2023-03-20T10:37:31;1.10;;;0.50;;
67378;SDS011;54262;44.642;-0.974;2023-03-20T10:45:26;2.17;;;1.02;;
67378;SDS011;54262;44.642;-0.974;2023-03-20T10:47:54;1.70;;;0.80;;
67378;SDS011;54262;44.642;-0.974;2023-03-20T10:50:22;2.22;;;1.40;;
67378;SDS011;54262;44.642;-0.974;2023-03-20T10:52:55;2.83;;;0.60;;
67378;SDS011;54262;44.642;-0.974;2023-03-20T10:55:33;2.58;;;0.80;;
67378;SDS011;54262;44.642;-0.974;2023-03-20T10:58:04;2.78;;;0.70;;
67378;SDS011;54262;44.642;-0.974;2023-03-20T11:00:35;4.53;;;0.50;;
67378;SDS011;54262;44.642;-0.974;2023-03-20T11:03:02;2.65;;;1.10;;
67378;SDS011;54262;44.642;-0.974;2023-03-20T11:05:30;4.40;;;0.60;;
67378;SDS011;54262;44.642;-0.974;2023-03-20T11:08:03;1.70;;;0.68;;
67378;SDS011;54262;44.642;-0.974;2023-03-20T11:10:32;3.47;;;0.77;;
67378;SDS011;54262;44.642;-0.974;2023-03-20T11:13:02;3.22;;;1.08;;
67378;SDS011;54262;44.642;-0.974;2023-03-20T11:15:39;1.83;;;0.60;;
67378;SDS011;54262;44.642;-0.974;2023-03-20T11:18:06;1.27;;;0.70;;
67378;SDS011;54262;44.642;-0.974;2023-03-20T11:20:45;1.05;;;0.93;;
67378;SDS011;54262;44.642;-0.974;2023-03-20T11:23:16;4.43;;;0.80;;
67378;SDS011;54262;44.642;-0.974;2023-03-20T11:25:57;1.42;;;0.57;;
67378;SDS011;54262;44.642;-0.974;2023-03-20T11:31:02;6.70;;;0.70;;
67378;SDS011;54262;44.642;-0.974;2023-03-20T11:33:29;1.42;;;0.68;;
67378;SDS011;54262;44.642;-0.974;2023-03-20T11:35:57;2.85;;;0.90;;
67378;SDS011;54262;44.642;-0.974;2023-03-20T11:38:23;2.65;;;1.05;;
67378;SDS011;54262;44.642;-0.974;2023-03-20T11:40:50;2.80;;;0.50;;
67378;SDS011;54262;44.642;-0.974;2023-03-20T11:43:23;1.40;;;0.85;;
67378;SDS011;54262;44.642;-0.974;2023-03-20T11:45:57;2.50;;;0.50;;
67378;SDS011;54262;44.642;-0.974;2023-03-20T11:48:25;3.60;;;0.50;;
67378;SDS011;54262;44.642;-0.974;2023-03-20T11:50:58;1.70;;;0.57;;
67378;SDS011;54262;44.642;-0.974;2023-03-20T11:53:30;2.45;;;0.70;;
67378;SDS011;54262;44.642;-0.974;2023-03-20T11:56:00;1.50;;;0.70;;
67378;SDS011;54262;44.642;-0.974;2023-03-20T11:58:26;1.15;;;0.60;;
67378;SDS011;54262;44.642;-0.974;2023-03-20T12:00:54;2.08;;;0.63;;
67378;SDS011;54262;44.642;-0.974;2023-03-20T12:06:06;1.42;;;0.77;;
67378;SDS011;54262;44.642;-0.974;2023-03-20T12:08:33;1.38;;;0.80;;
67378;SDS011;54262;44.642;-0.974;2023-03-20T12:11:05;2.35;;;0.80;;
67378;SDS011;54262;44.642;-0.974;2023-03-20T12:13:36;2.20;;;1.25;;
67378;SDS011;54262;44.642;-0.974;2023-03-20T12:16:05;2.88;;;1.00;;
67378;SDS011;54262;44.642;-0.974;2023-03-20T12:21:03;3.80;;;0.90;;
67378;SDS011;54262;44.642;-0.974;2023-03-20T12:28:35;1.48;;;0.60;;
67378;SDS011;54262;44.642;-0.974;2023-03-20T12:31:04;1.55;;;0.85;;
67378;SDS011;54262;44.642;-0.974;2023-03-20T12:36:28;2.45;;;1.30;;
67378;SDS011;54262;44.642;-0.974;2023-03-20T12:38:55;1.63;;;0.70;;
67378;SDS011;54262;44.642;-0.974;2023-03-20T12:41:25;3.88;;;1.67;;
67378;SDS011;54262;44.642;-0.974;2023-03-20T12:46:30;1.25;;;0.50;;
67378;SDS011;54262;44.642;-0.974;2023-03-20T12:49:08;2.15;;;0.60;;
67378;SDS011;54262;44.642;-0.974;2023-03-20T12:52:21;1.70;;;0.68;;
67378;SDS011;54262;44.642;-0.974;2023-03-20T12:54:55;6.78;;;0.80;;
67378;SDS011;54262;44.642;-0.974;2023-03-20T13:05:40;0.77;;;0.52;;
67378;SDS011;54262;44.642;-0.974;2023-03-20T13:13:16;1.00;;;0.70;;
67378;SDS011;54262;44.642;-0.974;2023-03-20T13:15:55;0.77;;;0.68;;
67378;SDS011;54262;44.642;-0.974;2023-03-20T13:18:34;1.02;;;0.57;;
67378;SDS011;54262;44.642;-0.974;2023-03-20T13:21:02;2.28;;;0.70;;
67378;SDS011;54262;44.642;-0.974;2023-03-20T13:23:45;1.55;;;1.20;;
67378;SDS011;54262;44.642;-0.974;2023-03-20T13:26:29;1.50;;;0.73;;
67378;SDS011;54262;44.642;-0.974;2023-03-20T13:39:39;1.70;;;0.85;;
67378;SDS011;54262;44.642;-0.974;2023-03-20T13:42:08;1.73;;;1.00;;
67378;SDS011;54262;44.642;-0.974;2023-03-20T13:44:37;1.48;;;1.38;;
67378;SDS011;54262;44.642;-0.974;2023-03-20T13:47:09;2.80;;;1.63;;
67378;SDS011;54262;44.642;-0.974;2023-03-20T13:59:59;4.35;;;1.10;;
67378;SDS011;54262;44.642;-0.974;2023-03-20T14:02:30;3.67;;;0.90;;
67378;SDS011;54262;44.642;-0.974;2023-03-20T14:08:00;1.45;;;1.00;;
67378;SDS011;54262;44.642;-0.974;2023-03-20T14:10:44;1.80;;;1.17;;
67378;SDS011;54262;44.642;-0.974;2023-03-20T14:13:16;3.05;;;1.13;;
67378;SDS011;54262;44.642;-0.974;2023-03-20T14:15:44;1.58;;;1.20;;
67378;SDS011;54262;44.642;-0.974;2023-03-20T14:18:17;2.88;;;1.10;;
67378;SDS011;54262;44.642;-0.974;2023-03-20T14:20:49;1.27;;;0.80;;
67378;SDS011;54262;44.642;-0.974;2023-03-20T14:23:17;1.40;;;1.05;;
67378;SDS011;54262;44.642;-0.974;2023-03-20T14:25:44;1.48;;;1.27;;
67378;SDS011;54262;44.642;-0.974;2023-03-20T14:30:45;9.02;;;1.33;;
67378;SDS011;54262;44.642;-0.974;2023-03-20T14:35:43;1.58;;;0.77;;
67378;SDS011;54262;44.642;-0.974;2023-03-20T14:48:52;1.90;;;0.85;;
67378;SDS011;54262;44.642;-0.974;2023-03-20T14:51:32;2.35;;;1.20;;
67378;SDS011;54262;44.642;-0.974;2023-03-20T14:57:14;2.03;;;1.35;;
67378;SDS011;54262;44.642;-0.974;2023-03-20T14:59:41;1.70;;;0.88;;
67378;SDS011;54262;44.642;-0.974;2023-03-20T15:02:17;1.20;;;0.80;;
67378;SDS011;54262;44.642;-0.974;2023-03-20T15:04:46;1.85;;;1.00;;
67378;SDS011;54262;44.642;-0.974;2023-03-20T15:07:13;6.18;;;1.20;;
67378;SDS011;54262;44.642;-0.974;2023-03-20T15:09:41;2.15;;;1.10;;
67378;SDS011;54262;44.642;-0.974;2023-03-20T15:12:11;2.47;;;1.35;;
67378;SDS011;54262;44.642;-0.974;2023-03-20T15:14:44;1.55;;;0.80;;
67378;SDS011;54262;44.642;-0.974;2023-03-20T15:17:22;3.38;;;1.10;;
67378;SDS011;54262;44.642;-0.974;2023-03-20T15:19:48;5.93;;;0.93;;
67378;SDS011;54262;44.642;-0.974;2023-03-20T15:22:17;2.03;;;1.00;;
67378;SDS011;54262;44.642;-0.974;2023-03-20T15:24:50;1.35;;;0.73;;
67378;SDS011;54262;44.642;-0.974;2023-03-20T15:27:17;1.25;;;0.75;;
67378;SDS011;54262;44.642;-0.974;2023-03-20T15:29:48;1.80;;;0.80;;
67378;SDS011;54262;44.642;-0.974;2023-03-20T15:32:15;1.95;;;1.45;;
67378;SDS011;54262;44.642;-0.974;2023-03-20T15:34:41;1.20;;;1.08;;
67378;SDS011;54262;44.642;-0.974;2023-03-20T15:37:12;2.30;;;1.63;;
67378;SDS011;54262;44.642;-0.974;2023-03-20T15:39:46;4.78;;;0.95;;
67378;SDS011;54262;44.642;-0.974;2023-03-20T15:42:13;1.27;;;0.98;;
67378;SDS011;54262;44.642;-0.974;2023-03-20T15:44:41;5.43;;;1.23;;
67378;SDS011;54262;44.642;-0.974;2023-03-20T15:49:41;1.63;;;1.23;;
67378;SDS011;54262;44.642;-0.974;2023-03-20T15:52:12;3.78;;;1.75;;
67378;SDS011;54262;44.642;-0.974;2023-03-20T15:54:41;2.30;;;1.80;;
67378;SDS011;54262;44.642;-0.974;2023-03-20T15:57:12;1.05;;;0.95;;
67378;SDS011;54262;44.642;-0.974;2023-03-20T15:59:41;2.08;;;1.45;;
67378;SDS011;54262;44.642;-0.974;2023-03-20T16:02:08;8.05;;;1.00;;
67378;SDS011;54262;44.642;-0.974;2023-03-20T16:04:44;1.15;;;0.70;;
67378;SDS011;54262;44.642;-0.974;2023-03-20T16:07:18;2.17;;;0.82;;
67378;SDS011;54262;44.642;-0.974;2023-03-20T16:09:45;1.45;;;0.90;;
67378;SDS011;54262;44.642;-0.974;2023-03-20T16:12:14;1.63;;;1.13;;
67378;SDS011;54262;44.642;-0.974;2023-03-20T16:14:43;1.20;;;0.70;;
67378;SDS011;54262;44.642;-0.974;2023-03-20T16:17:11;2.65;;;1.00;;
67378;SDS011;54262;44.642;-0.974;2023-03-20T16:19:38;3.92;;;1.02;;
67378;SDS011;54262;44.642;-0.974;2023-03-20T16:22:14;1.20;;;0.95;;
67378;SDS011;54262;44.642;-0.974;2023-03-20T16:24:43;1.52;;;0.85;;
67378;SDS011;54262;44.642;-0.974;2023-03-20T16:27:12;1.42;;;1.00;;
67378;SDS011;54262;44.642;-0.974;2023-03-20T16:29:41;2.65;;;0.85;;
67378;SDS011;54262;44.642;-0.974;2023-03-20T16:32:41;1.17;;;0.93;;
67378;SDS011;54262;44.642;-0.974;2023-03-20T16:35:00;1.40;;;0.95;;
67378;SDS011;54262;44.642;-0.974;2023-03-20T16:37:32;1.52;;;1.20;;
67378;SDS011;54262;44.642;-0.974;2023-03-20T16:42:29;1.35;;;1.23;;
67378;SDS011;54262;44.642;-0.974;2023-03-20T16:44:56;1.85;;;0.82;;
67378;SDS011;54262;44.642;-0.974;2023-03-20T16:47:24;3.55;;;1.13;;
67378;SDS011;54262;44.642;-0.974;2023-03-20T16:52:31;1.05;;;0.60;;
67378;SDS011;54262;44.642;-0.974;2023-03-20T16:54:58;3.95;;;1.63;;
67378;SDS011;54262;44.642;-0.974;2023-03-20T16:57:27;2.20;;;1.23;;
67378;SDS011;54262;44.642;-0.974;2023-03-20T17:00:02;3.45;;;0.90;;
67378;SDS011;54262;44.642;-0.974;2023-03-20T17:02:29;1.17;;;0.70;;
67378;SDS011;54262;44.642;-0.974;2023-03-20T17:05:04;2.38;;;1.00;;
67378;SDS011;54262;44.642;-0.974;2023-03-20T17:07:31;1.42;;;0.70;;
67378;SDS011;54262;44.642;-0.974;2023-03-20T17:15:16;1.38;;;0.90;;